Vermilion on the Lake, Ohio
Current Conditions -  °F | °C
As of 2:53 AM on Thursday 23 Oct 2014 (Local Time) from KLPR Reporting Station
Clear Clear  
Wind Chill: 41°   Ceiling: Unl
Heat Index: 44°   Visibility: 10mi
Dew Point: 42°   Wind: 6mph
Humidity: 93%   Direction: 330°NNW
Pressure: 30.23"   Gusts: NA
Location:  41.3884°N, 82.3643°W
Report Text: KLPR 230653Z AUTO 33005KT 10SM CLR 07/06 A3023 RMK AO2 SLP238 T00670056 TSNO
Loading
Personal Weather Stations






























Interactive Weather Map
Tropical Storm Tracking
New forecast layout! Learn more

10-Day Weather Forecast

Advertisements
Track Severe Weather on mobile